sensor_id;sensor_type;location;lat;lon;timestamp;pressure;altitude;pressure_sealevel;temperature;humidity
6387;BME280;3226;42.162;24.756;2022-10-31T00:01:27;99924.75;;;15.68;51.93
6387;BME280;3226;42.162;24.756;2022-10-31T00:03:55;99930.16;;;15.67;52.03
6387;BME280;3226;42.162;24.756;2022-10-31T00:06:23;99934.56;;;15.76;51.63
6387;BME280;3226;42.162;24.756;2022-10-31T00:08:53;99928.66;;;15.82;51.39
6387;BME280;3226;42.162;24.756;2022-10-31T00:11:23;99927.22;;;15.88;51.42
6387;BME280;3226;42.162;24.756;2022-10-31T00:13:51;99928.06;;;15.88;51.10
6387;BME280;3226;42.162;24.756;2022-10-31T00:16:20;99921.94;;;15.88;51.19
6387;BME280;3226;42.162;24.756;2022-10-31T00:18:48;99930.75;;;15.97;50.91
6387;BME280;3226;42.162;24.756;2022-10-31T00:21:17;99929.75;;;15.98;50.98
6387;BME280;3226;42.162;24.756;2022-10-31T00:23:46;99922.47;;;15.92;51.02
6387;BME280;3226;42.162;24.756;2022-10-31T00:26:16;99920.94;;;15.89;51.12
6387;BME280;3226;42.162;24.756;2022-10-31T00:28:45;99931.78;;;16.04;51.17
6387;BME280;3226;42.162;24.756;2022-10-31T00:31:14;99914.41;;;15.93;50.70
6387;BME280;3226;42.162;24.756;2022-10-31T00:33:42;99936.47;;;16.10;50.48
6387;BME280;3226;42.162;24.756;2022-10-31T00:36:11;99935.47;;;16.11;50.54
6387;BME280;3226;42.162;24.756;2022-10-31T00:38:40;99932.84;;;16.11;50.82
6387;BME280;3226;42.162;24.756;2022-10-31T00:41:08;99936.97;;;16.14;50.69
6387;BME280;3226;42.162;24.756;2022-10-31T00:43:36;99942.44;;;16.21;50.49
6387;BME280;3226;42.162;24.756;2022-10-31T00:46:06;99939.19;;;16.27;50.22
6387;BME280;3226;42.162;24.756;2022-10-31T00:48:34;99933.38;;;16.23;50.48
6387;BME280;3226;42.162;24.756;2022-10-31T00:51:02;99918.88;;;16.27;50.35
6387;BME280;3226;42.162;24.756;2022-10-31T00:53:30;99930.63;;;16.33;50.28
6387;BME280;3226;42.162;24.756;2022-10-31T00:55:58;99925.75;;;16.46;49.89
6387;BME280;3226;42.162;24.756;2022-10-31T00:58:25;99933.00;;;16.44;50.00
6387;BME280;3226;42.162;24.756;2022-10-31T01:00:53;99929.22;;;16.55;49.57
6387;BME280;3226;42.162;24.756;2022-10-31T01:03:25;99922.34;;;16.62;49.25
6387;BME280;3226;42.162;24.756;2022-10-31T01:05:58;99925.81;;;16.71;48.83
6387;BME280;3226;42.162;24.756;2022-10-31T01:08:27;99908.28;;;16.62;49.07
6387;BME280;3226;42.162;24.756;2022-10-31T01:10:59;99918.59;;;16.82;48.58
6387;BME280;3226;42.162;24.756;2022-10-31T01:13:27;99896.06;;;16.69;48.89
6387;BME280;3226;42.162;24.756;2022-10-31T01:15:56;99911.66;;;16.81;48.69
6387;BME280;3226;42.162;24.756;2022-10-31T01:18:26;99922.91;;;16.91;48.51
6387;BME280;3226;42.162;24.756;2022-10-31T01:20:58;99917.44;;;16.92;48.38
6387;BME280;3226;42.162;24.756;2022-10-31T01:23:27;99916.69;;;17.00;47.95
6387;BME280;3226;42.162;24.756;2022-10-31T01:26:06;99917.84;;;16.98;48.10
6387;BME280;3226;42.162;24.756;2022-10-31T01:28:35;99896.13;;;16.94;47.79
6387;BME280;3226;42.162;24.756;2022-10-31T01:31:05;99901.47;;;17.02;47.79
6387;BME280;3226;42.162;24.756;2022-10-31T01:33:35;99908.94;;;17.15;47.68
6387;BME280;3226;42.162;24.756;2022-10-31T01:36:12;99909.59;;;17.09;47.28
6387;BME280;3226;42.162;24.756;2022-10-31T01:38:40;99909.25;;;17.12;47.25
6387;BME280;3226;42.162;24.756;2022-10-31T01:41:09;99911.44;;;17.17;47.13
6387;BME280;3226;42.162;24.756;2022-10-31T01:43:46;99907.41;;;17.13;47.29
6387;BME280;3226;42.162;24.756;2022-10-31T01:46:17;99912.06;;;17.11;47.14
6387;BME280;3226;42.162;24.756;2022-10-31T01:48:48;99916.03;;;17.07;47.10
6387;BME280;3226;42.162;24.756;2022-10-31T01:51:19;99918.53;;;17.16;47.23
6387;BME280;3226;42.162;24.756;2022-10-31T01:53:49;99914.03;;;17.09;47.06
6387;BME280;3226;42.162;24.756;2022-10-31T01:56:18;99907.41;;;17.13;47.14
6387;BME280;3226;42.162;24.756;2022-10-31T01:58:46;99908.75;;;17.09;46.97
6387;BME280;3226;42.162;24.756;2022-10-31T02:01:15;99906.75;;;17.11;46.93
6387;BME280;3226;42.162;24.756;2022-10-31T02:03:45;99907.47;;;17.21;46.85
6387;BME280;3226;42.162;24.756;2022-10-31T02:06:21;99905.28;;;17.25;46.81
6387;BME280;3226;42.162;24.756;2022-10-31T02:08:55;99903.31;;;17.18;47.16
6387;BME280;3226;42.162;24.756;2022-10-31T02:11:25;99898.53;;;17.22;46.96
6387;BME280;3226;42.162;24.756;2022-10-31T02:13:54;99890.25;;;17.17;46.92
6387;BME280;3226;42.162;24.756;2022-10-31T02:16:22;99888.91;;;17.13;47.14
6387;BME280;3226;42.162;24.756;2022-10-31T02:18:49;99903.44;;;17.09;47.42
6387;BME280;3226;42.162;24.756;2022-10-31T02:21:24;99893.19;;;17.05;47.40
6387;BME280;3226;42.162;24.756;2022-10-31T02:24:28;99888.75;;;17.14;46.95
6387;BME280;3226;42.162;24.756;2022-10-31T02:27:08;99888.75;;;17.23;46.85
6387;BME280;3226;42.162;24.756;2022-10-31T02:30:05;99892.06;;;17.16;46.75
6387;BME280;3226;42.162;24.756;2022-10-31T02:33:02;99892.72;;;17.18;47.30
6387;BME280;3226;42.162;24.756;2022-10-31T02:35:40;99886.63;;;17.18;46.88
6387;BME280;3226;42.162;24.756;2022-10-31T02:38:21;99897.34;;;17.16;47.00
6387;BME280;3226;42.162;24.756;2022-10-31T02:41:00;99896.34;;;17.26;47.00
6387;BME280;3226;42.162;24.756;2022-10-31T02:43:35;99900.50;;;17.20;47.10
6387;BME280;3226;42.162;24.756;2022-10-31T02:46:10;99906.13;;;17.25;46.88
6387;BME280;3226;42.162;24.756;2022-10-31T02:48:41;99894.56;;;17.26;46.82
6387;BME280;3226;42.162;24.756;2022-10-31T02:51:11;99905.47;;;17.31;46.46
6387;BME280;3226;42.162;24.756;2022-10-31T02:53:39;99916.72;;;17.25;46.49
6387;BME280;3226;42.162;24.756;2022-10-31T02:56:12;99912.75;;;17.29;46.73
6387;BME280;3226;42.162;24.756;2022-10-31T02:58:43;99910.44;;;17.26;47.16
6387;BME280;3226;42.162;24.756;2022-10-31T03:01:34;99921.84;;;17.27;47.45
6387;BME280;3226;42.162;24.756;2022-10-31T03:04:34;99919.53;;;17.40;46.62
6387;BME280;3226;42.162;24.756;2022-10-31T03:07:08;99923.00;;;17.49;46.45
6387;BME280;3226;42.162;24.756;2022-10-31T03:09:44;99926.31;;;17.43;46.53
6387;BME280;3226;42.162;24.756;2022-10-31T03:12:20;99923.34;;;17.38;46.59
6387;BME280;3226;42.162;24.756;2022-10-31T03:14:54;99928.97;;;17.51;46.36
6387;BME280;3226;42.162;24.756;2022-10-31T03:17:29;99930.31;;;17.55;46.55
6387;BME280;3226;42.162;24.756;2022-10-31T03:20:04;99923.84;;;17.49;46.17
6387;BME280;3226;42.162;24.756;2022-10-31T03:22:35;99940.91;;;17.55;46.28
6387;BME280;3226;42.162;24.756;2022-10-31T03:25:06;99945.84;;;17.58;46.49
6387;BME280;3226;42.162;24.756;2022-10-31T03:27:35;99947.84;;;17.56;46.13
6387;BME280;3226;42.162;24.756;2022-10-31T03:30:06;99962.22;;;17.54;46.37
6387;BME280;3226;42.162;24.756;2022-10-31T03:32:38;99961.09;;;17.56;46.25
6387;BME280;3226;42.162;24.756;2022-10-31T03:35:10;99960.09;;;17.66;46.24
6387;BME280;3226;42.162;24.756;2022-10-31T03:37:40;99972.00;;;17.70;45.99
6387;BME280;3226;42.162;24.756;2022-10-31T03:40:11;99965.88;;;17.61;46.11
6387;BME280;3226;42.162;24.756;2022-10-31T03:42:42;99960.75;;;17.68;46.15
6387;BME280;3226;42.162;24.756;2022-10-31T03:45:14;99965.53;;;17.81;45.65
6387;BME280;3226;42.162;24.756;2022-10-31T03:47:43;99954.78;;;17.66;45.83
6387;BME280;3226;42.162;24.756;2022-10-31T03:50:14;99967.34;;;17.72;45.90
6387;BME280;3226;42.162;24.756;2022-10-31T03:52:45;99963.41;;;17.68;46.37
6387;BME280;3226;42.162;24.756;2022-10-31T03:55:18;99947.66;;;17.49;46.19
6387;BME280;3226;42.162;24.756;2022-10-31T03:57:51;99970.81;;;17.64;46.03
6387;BME280;3226;42.162;24.756;2022-10-31T04:00:20;99974.13;;;17.66;46.23
6387;BME280;3226;42.162;24.756;2022-10-31T04:02:53;99978.28;;;17.69;46.05
6387;BME280;3226;42.162;24.756;2022-10-31T04:05:25;99979.28;;;17.59;46.57
6387;BME280;3226;42.162;24.756;2022-10-31T04:07:54;99981.41;;;17.56;46.18
6387;BME280;3226;42.162;24.756;2022-10-31T04:10:26;99982.59;;;17.61;46.39
6387;BME280;3226;42.162;24.756;2022-10-31T04:13:02;99979.63;;;17.56;46.54
6387;BME280;3226;42.162;24.756;2022-10-31T04:15:32;99985.88;;;17.39;46.77
6387;BME280;3226;42.162;24.756;2022-10-31T04:18:01;99990.50;;;17.37;47.31
6387;BME280;3226;42.162;24.756;2022-10-31T04:20:34;99999.09;;;17.39;46.93
6387;BME280;3226;42.162;24.756;2022-10-31T04:23:03;99990.50;;;17.37;46.79
6387;BME280;3226;42.162;24.756;2022-10-31T04:25:34;99997.78;;;17.43;46.89
6387;BME280;3226;42.162;24.756;2022-10-31T04:28:02;100001.09;;;17.45;46.76
6387;BME280;3226;42.162;24.756;2022-10-31T04:30:30;99986.53;;;17.41;47.10
6387;BME280;3226;42.162;24.756;2022-10-31T04:32:58;99981.25;;;17.41;47.08
6387;BME280;3226;42.162;24.756;2022-10-31T04:35:27;99985.53;;;17.33;46.78
6387;BME280;3226;42.162;24.756;2022-10-31T04:37:56;100001.44;;;17.42;47.46
6387;BME280;3226;42.162;24.756;2022-10-31T04:40:24;99988.84;;;17.27;47.03
6387;BME280;3226;42.162;24.756;2022-10-31T04:42:52;100001.56;;;17.32;47.29
6387;BME280;3226;42.162;24.756;2022-10-31T04:45:20;100010.69;;;17.29;47.50
6387;BME280;3226;42.162;24.756;2022-10-31T04:47:48;100012.34;;;17.30;47.21
6387;BME280;3226;42.162;24.756;2022-10-31T04:50:16;100021.09;;;17.31;47.27
6387;BME280;3226;42.162;24.756;2022-10-31T04:52:45;100027.84;;;17.17;48.03
6387;BME280;3226;42.162;24.756;2022-10-31T04:55:15;100031.78;;;17.13;48.17
6387;BME280;3226;42.162;24.756;2022-10-31T04:57:44;100038.72;;;17.14;48.15
6387;BME280;3226;42.162;24.756;2022-10-31T05:00:14;100026.19;;;17.16;48.13
6387;BME280;3226;42.162;24.756;2022-10-31T05:02:43;100031.50;;;17.16;48.07
6387;BME280;3226;42.162;24.756;2022-10-31T05:05:11;100034.75;;;17.10;47.79
6387;BME280;3226;42.162;24.756;2022-10-31T05:07:39;100031.78;;;17.13;47.64
6387;BME280;3226;42.162;24.756;2022-10-31T05:10:08;100027.47;;;17.03;48.11
6387;BME280;3226;42.162;24.756;2022-10-31T05:12:45;100035.63;;;17.18;47.96
6387;BME280;3226;42.162;24.756;2022-10-31T05:15:13;100051.50;;;17.18;48.20
6387;BME280;3226;42.162;24.756;2022-10-31T05:17:42;100051.66;;;17.17;48.17
6387;BME280;3226;42.162;24.756;2022-10-31T05:20:11;100060.06;;;17.12;48.07
6387;BME280;3226;42.162;24.756;2022-10-31T05:22:42;100060.59;;;17.16;48.53
6387;BME280;3226;42.162;24.756;2022-10-31T05:25:10;100068.03;;;17.20;47.96
6387;BME280;3226;42.162;24.756;2022-10-31T05:27:41;100064.41;;;17.22;47.89
6387;BME280;3226;42.162;24.756;2022-10-31T05:30:11;100059.09;;;17.13;48.54
6387;BME280;3226;42.162;24.756;2022-10-31T05:32:40;100050.63;;;17.10;48.52
6387;BME280;3226;42.162;24.756;2022-10-31T05:35:10;100065.56;;;17.19;48.40
6387;BME280;3226;42.162;24.756;2022-10-31T05:37:38;100059.22;;;17.12;48.62
6387;BME280;3226;42.162;24.756;2022-10-31T05:40:08;100070.22;;;17.25;48.10
6387;BME280;3226;42.162;24.756;2022-10-31T05:42:38;100076.50;;;17.24;48.25
6387;BME280;3226;42.162;24.756;2022-10-31T05:45:09;100069.72;;;17.30;48.38
6387;BME280;3226;42.162;24.756;2022-10-31T05:47:37;100079.78;;;17.18;48.18
6387;BME280;3226;42.162;24.756;2022-10-31T05:50:06;100084.09;;;17.19;48.57
6387;BME280;3226;42.162;24.756;2022-10-31T05:52:34;100089.06;;;17.22;48.62
6387;BME280;3226;42.162;24.756;2022-10-31T05:55:03;100089.75;;;17.32;48.13
6387;BME280;3226;42.162;24.756;2022-10-31T05:57:32;100093.25;;;17.33;48.30
6387;BME280;3226;42.162;24.756;2022-10-31T06:00:00;100090.75;;;17.40;48.24
6387;BME280;3226;42.162;24.756;2022-10-31T06:02:30;100094.25;;;17.40;49.00
6387;BME280;3226;42.162;24.756;2022-10-31T06:05:01;100094.41;;;17.39;48.63
6387;BME280;3226;42.162;24.756;2022-10-31T06:07:32;100103.19;;;17.39;48.49
6387;BME280;3226;42.162;24.756;2022-10-31T06:10:01;100107.66;;;17.47;48.37
6387;BME280;3226;42.162;24.756;2022-10-31T06:12:29;100105.31;;;17.36;48.60
6387;BME280;3226;42.162;24.756;2022-10-31T06:14:57;100114.94;;;17.45;48.68
6387;BME280;3226;42.162;24.756;2022-10-31T06:17:25;100113.91;;;17.38;48.83
6387;BME280;3226;42.162;24.756;2022-10-31T06:19:54;100122.19;;;17.34;49.13
6387;BME280;3226;42.162;24.756;2022-10-31T06:22:22;100117.72;;;17.35;48.71
6387;BME280;3226;42.162;24.756;2022-10-31T06:24:50;100117.56;;;17.45;48.54
6387;BME280;3226;42.162;24.756;2022-10-31T06:27:18;100118.91;;;17.41;49.17
6387;BME280;3226;42.162;24.756;2022-10-31T06:29:47;100124.75;;;17.61;48.40
6387;BME280;3226;42.162;24.756;2022-10-31T06:32:15;100129.59;;;17.74;48.37
6387;BME280;3226;42.162;24.756;2022-10-31T06:34:43;100130.09;;;17.86;47.82
6387;BME280;3226;42.162;24.756;2022-10-31T06:37:15;100133.28;;;17.98;47.87
6387;BME280;3226;42.162;24.756;2022-10-31T06:39:43;100135.81;;;18.16;47.44
6387;BME280;3226;42.162;24.756;2022-10-31T06:42:11;100139.13;;;18.43;47.26
6387;BME280;3226;42.162;24.756;2022-10-31T06:44:39;100125.03;;;18.42;46.83
6387;BME280;3226;42.162;24.756;2022-10-31T06:47:07;100129.81;;;18.63;46.92
6387;BME280;3226;42.162;24.756;2022-10-31T06:49:35;100128.16;;;18.79;46.64
6387;BME280;3226;42.162;24.756;2022-10-31T06:52:04;100128.47;;;18.84;46.48
6387;BME280;3226;42.162;24.756;2022-10-31T06:54:33;100123.47;;;18.98;46.15
6387;BME280;3226;42.162;24.756;2022-10-31T06:57:01;100119.00;;;18.98;46.08
6387;BME280;3226;42.162;24.756;2022-10-31T06:59:29;100111.72;;;18.92;46.05
6387;BME280;3226;42.162;24.756;2022-10-31T07:01:58;100129.25;;;19.10;45.80
6387;BME280;3226;42.162;24.756;2022-10-31T07:04:26;100124.75;;;19.18;45.62
6387;BME280;3226;42.162;24.756;2022-10-31T07:06:54;100128.56;;;19.16;45.78
6387;BME280;3226;42.162;24.756;2022-10-31T07:09:22;100119.06;;;19.30;45.56
6387;BME280;3226;42.162;24.756;2022-10-31T07:11:53;100136.34;;;19.26;45.35
6387;BME280;3226;42.162;24.756;2022-10-31T07:14:21;100130.16;;;19.33;45.14
6387;BME280;3226;42.162;24.756;2022-10-31T07:16:49;100135.28;;;19.35;45.12
6387;BME280;3226;42.162;24.756;2022-10-31T07:19:18;100124.84;;;19.33;45.20
6387;BME280;3226;42.162;24.756;2022-10-31T07:21:46;100128.63;;;19.47;44.75
6387;BME280;3226;42.162;24.756;2022-10-31T07:24:14;100128.06;;;19.52;45.08
6387;BME280;3226;42.162;24.756;2022-10-31T07:26:41;100111.31;;;19.52;44.93
6387;BME280;3226;42.162;24.756;2022-10-31T07:29:13;100130.81;;;19.67;44.86
6387;BME280;3226;42.162;24.756;2022-10-31T07:31:41;100131.66;;;19.68;44.66
6387;BME280;3226;42.162;24.756;2022-10-31T07:34:10;100129.34;;;19.64;44.69
6387;BME280;3226;42.162;24.756;2022-10-31T07:36:38;100132.97;;;19.72;44.43
6387;BME280;3226;42.162;24.756;2022-10-31T07:39:06;100127.44;;;19.82;44.15
6387;BME280;3226;42.162;24.756;2022-10-31T07:41:34;100125.72;;;19.89;44.24
6387;BME280;3226;42.162;24.756;2022-10-31T07:44:02;100126.72;;;19.88;44.38
6387;BME280;3226;42.162;24.756;2022-10-31T07:46:31;100130.16;;;19.97;44.48
6387;BME280;3226;42.162;24.756;2022-10-31T07:48:59;100130.41;;;20.10;44.20
6387;BME280;3226;42.162;24.756;2022-10-31T07:51:27;100117.19;;;20.02;44.36
6387;BME280;3226;42.162;24.756;2022-10-31T07:53:55;100125.97;;;20.26;43.57
6387;BME280;3226;42.162;24.756;2022-10-31T07:56:23;100130.50;;;20.40;43.33
6387;BME280;3226;42.162;24.756;2022-10-31T07:58:51;100130.34;;;20.57;43.12
6387;BME280;3226;42.162;24.756;2022-10-31T08:01:19;100131.28;;;20.64;42.93
6387;BME280;3226;42.162;24.756;2022-10-31T08:03:48;100134.25;;;20.69;42.94
6387;BME280;3226;42.162;24.756;2022-10-31T08:06:16;100125.63;;;20.82;42.84
6387;BME280;3226;42.162;24.756;2022-10-31T08:08:44;100103.09;;;20.55;42.68
6387;BME280;3226;42.162;24.756;2022-10-31T08:11:12;100127.13;;;20.85;42.32
6387;BME280;3226;42.162;24.756;2022-10-31T08:13:40;100119.19;;;20.76;42.78
6387;BME280;3226;42.162;24.756;2022-10-31T08:16:09;100126.28;;;20.99;42.33
6387;BME280;3226;42.162;24.756;2022-10-31T08:18:37;100127.50;;;21.12;42.07
6387;BME280;3226;42.162;24.756;2022-10-31T08:21:07;100122.91;;;21.05;42.39
6387;BME280;3226;42.162;24.756;2022-10-31T08:23:35;100127.38;;;21.20;41.96
6387;BME280;3226;42.162;24.756;2022-10-31T08:26:02;100128.56;;;21.32;41.91
6387;BME280;3226;42.162;24.756;2022-10-31T08:28:32;100129.75;;;21.45;41.12
6387;BME280;3226;42.162;24.756;2022-10-31T08:31:00;100134.06;;;21.46;40.83
6387;BME280;3226;42.162;24.756;2022-10-31T08:33:28;100123.47;;;21.52;41.10
6387;BME280;3226;42.162;24.756;2022-10-31T08:35:57;100127.22;;;21.73;40.12
6387;BME280;3226;42.162;24.756;2022-10-31T08:38:26;100125.91;;;21.84;40.26
6387;BME280;3226;42.162;24.756;2022-10-31T08:40:54;100122.72;;;21.95;39.40
6387;BME280;3226;42.162;24.756;2022-10-31T08:43:22;100125.25;;;22.04;39.46
6387;BME280;3226;42.162;24.756;2022-10-31T08:45:50;100124.50;;;22.10;39.40
6387;BME280;3226;42.162;24.756;2022-10-31T08:48:21;100126.66;;;22.21;39.46
6387;BME280;3226;42.162;24.756;2022-10-31T08:50:49;100131.47;;;22.33;39.05
6387;BME280;3226;42.162;24.756;2022-10-31T08:53:18;100128.78;;;22.33;38.65
6387;BME280;3226;42.162;24.756;2022-10-31T08:55:47;100136.84;;;22.39;37.98
6387;BME280;3226;42.162;24.756;2022-10-31T08:58:17;100133.13;;;22.56;38.55
6387;BME280;3226;42.162;24.756;2022-10-31T09:00:46;100131.47;;;22.33;37.82
6387;BME280;3226;42.162;24.756;2022-10-31T09:03:18;100132.72;;;22.37;38.14
6387;BME280;3226;42.162;24.756;2022-10-31T09:05:47;100124.75;;;22.15;38.79
6387;BME280;3226;42.162;24.756;2022-10-31T09:08:15;100132.31;;;22.33;39.04
6387;BME280;3226;42.162;24.756;2022-10-31T09:10:43;100127.84;;;22.19;38.31
6387;BME280;3226;42.162;24.756;2022-10-31T09:13:15;100129.09;;;22.23;38.56
6387;BME280;3226;42.162;24.756;2022-10-31T09:15:45;100139.47;;;22.55;38.46
6387;BME280;3226;42.162;24.756;2022-10-31T09:18:15;100130.84;;;22.52;37.81
6387;BME280;3226;42.162;24.756;2022-10-31T09:20:45;100135.63;;;22.64;37.89
6387;BME280;3226;42.162;24.756;2022-10-31T09:23:14;100130.19;;;22.79;37.95
6387;BME280;3226;42.162;24.756;2022-10-31T09:25:43;100124.50;;;22.60;37.92
6387;BME280;3226;42.162;24.756;2022-10-31T09:28:19;100125.03;;;22.77;37.57
6387;BME280;3226;42.162;24.756;2022-10-31T09:30:48;100121.03;;;22.95;37.94
6387;BME280;3226;42.162;24.756;2022-10-31T09:33:17;100114.59;;;23.18;37.36
6387;BME280;3226;42.162;24.756;2022-10-31T09:35:44;100114.91;;;23.01;37.49
6387;BME280;3226;42.162;24.756;2022-10-31T09:38:14;100113.91;;;23.09;37.01
6387;BME280;3226;42.162;24.756;2022-10-31T09:40:44;100094.81;;;22.70;37.31
6387;BME280;3226;42.162;24.756;2022-10-31T09:43:18;100108.53;;;23.02;37.62
6387;BME280;3226;42.162;24.756;2022-10-31T09:45:56;100120.47;;;23.06;36.71
6387;BME280;3226;42.162;24.756;2022-10-31T09:48:49;100125.63;;;23.08;36.12
6387;BME280;3226;42.162;24.756;2022-10-31T09:51:25;100117.47;;;23.23;36.30
6387;BME280;3226;42.162;24.756;2022-10-31T09:54:00;100118.13;;;23.25;35.84
6387;BME280;3226;42.162;24.756;2022-10-31T09:56:31;100119.63;;;23.48;36.30
6387;BME280;3226;42.162;24.756;2022-10-31T09:59:02;100115.25;;;22.85;36.79
6387;BME280;3226;42.162;24.756;2022-10-31T10:01:42;100110.81;;;23.05;36.56
6387;BME280;3226;42.162;24.756;2022-10-31T10:04:32;100109.66;;;23.21;36.42
6387;BME280;3226;42.162;24.756;2022-10-31T10:07:03;100109.72;;;23.28;35.59
6387;BME280;3226;42.162;24.756;2022-10-31T10:09:33;100104.16;;;23.30;36.16
6387;BME280;3226;42.162;24.756;2022-10-31T10:12:09;100101.81;;;23.55;35.57
6387;BME280;3226;42.162;24.756;2022-10-31T10:14:56;100097.50;;;23.67;35.87
6387;BME280;3226;42.162;24.756;2022-10-31T10:17:38;100090.09;;;23.70;35.42
6387;BME280;3226;42.162;24.756;2022-10-31T10:20:25;100089.69;;;23.86;35.59
6387;BME280;3226;42.162;24.756;2022-10-31T10:25:59;100087.44;;;23.76;35.16
6387;BME280;3226;42.162;24.756;2022-10-31T10:28:38;100090.13;;;23.76;35.42
6387;BME280;3226;42.162;24.756;2022-10-31T10:31:14;100084.78;;;23.76;35.36
6387;BME280;3226;42.162;24.756;2022-10-31T10:33:51;100080.44;;;23.82;34.84
6387;BME280;3226;42.162;24.756;2022-10-31T10:36:28;100071.84;;;23.93;35.05
6387;BME280;3226;42.162;24.756;2022-10-31T10:39:03;100069.38;;;23.99;35.25
6387;BME280;3226;42.162;24.756;2022-10-31T10:41:33;100072.25;;;24.17;34.88
6387;BME280;3226;42.162;24.756;2022-10-31T10:44:01;100062.97;;;23.86;34.71
6387;BME280;3226;42.162;24.756;2022-10-31T10:46:39;100061.56;;;23.90;35.09
6387;BME280;3226;42.162;24.756;2022-10-31T10:49:31;100060.13;;;24.15;34.70
6387;BME280;3226;42.162;24.756;2022-10-31T10:52:06;100039.97;;;24.05;34.31
6387;BME280;3226;42.162;24.756;2022-10-31T10:55:04;100054.56;;;24.16;35.06
6387;BME280;3226;42.162;24.756;2022-10-31T10:57:55;100059.47;;;24.46;34.36
6387;BME280;3226;42.162;24.756;2022-10-31T11:00:26;100062.56;;;24.43;34.42
6387;BME280;3226;42.162;24.756;2022-10-31T11:02:56;100061.31;;;24.52;33.58
6387;BME280;3226;42.162;24.756;2022-10-31T11:05:30;100054.06;;;24.73;32.69
6387;BME280;3226;42.162;24.756;2022-10-31T11:08:00;100050.16;;;24.62;33.60
6387;BME280;3226;42.162;24.756;2022-10-31T11:10:28;100052.22;;;24.67;33.74
6387;BME280;3226;42.162;24.756;2022-10-31T11:13:21;100053.06;;;24.74;33.47
6387;BME280;3226;42.162;24.756;2022-10-31T11:15:55;100037.25;;;24.32;34.13
6387;BME280;3226;42.162;24.756;2022-10-31T11:18:26;100049.41;;;24.21;34.11
6387;BME280;3226;42.162;24.756;2022-10-31T11:20:57;100049.78;;;24.45;33.97
6387;BME280;3226;42.162;24.756;2022-10-31T11:23:27;100046.72;;;24.42;34.20
6387;BME280;3226;42.162;24.756;2022-10-31T11:25:57;100041.56;;;24.47;34.50
6387;BME280;3226;42.162;24.756;2022-10-31T11:28:27;100033.72;;;24.52;34.05
6387;BME280;3226;42.162;24.756;2022-10-31T11:30:57;100034.94;;;24.63;34.19
6387;BME280;3226;42.162;24.756;2022-10-31T11:33:30;100029.56;;;24.76;33.92
6387;BME280;3226;42.162;24.756;2022-10-31T11:36:00;100031.91;;;24.39;33.90
6387;BME280;3226;42.162;24.756;2022-10-31T11:38:33;100033.53;;;24.40;34.53
6387;BME280;3226;42.162;24.756;2022-10-31T11:41:10;100033.56;;;24.27;34.00
6387;BME280;3226;42.162;24.756;2022-10-31T11:43:46;100029.88;;;24.28;34.35
6387;BME280;3226;42.162;24.756;2022-10-31T11:46:20;100019.97;;;24.21;34.79
6387;BME280;3226;42.162;24.756;2022-10-31T11:48:53;100018.53;;;23.99;34.84
6387;BME280;3226;42.162;24.756;2022-10-31T11:51:24;100021.81;;;23.74;35.08
6387;BME280;3226;42.162;24.756;2022-10-31T11:53:54;100016.28;;;23.89;35.34
6387;BME280;3226;42.162;24.756;2022-10-31T11:56:37;100021.19;;;23.65;35.70
6387;BME280;3226;42.162;24.756;2022-10-31T11:59:15;100014.81;;;23.66;35.42
6387;BME280;3226;42.162;24.756;2022-10-31T12:01:47;100021.03;;;23.93;34.75
6387;BME280;3226;42.162;24.756;2022-10-31T12:04:17;100013.19;;;23.99;34.76
6387;BME280;3226;42.162;24.756;2022-10-31T12:06:46;100022.00;;;24.46;33.90
6387;BME280;3226;42.162;24.756;2022-10-31T12:09:20;100014.72;;;24.80;33.64
6387;BME280;3226;42.162;24.756;2022-10-31T12:12:07;100019.88;;;24.82;33.80
6387;BME280;3226;42.162;24.756;2022-10-31T12:14:45;100007.94;;;25.17;33.35
6387;BME280;3226;42.162;24.756;2022-10-31T12:17:16;100012.38;;;25.36;33.38
6387;BME280;3226;42.162;24.756;2022-10-31T12:19:55;100018.06;;;25.15;32.54
6387;BME280;3226;42.162;24.756;2022-10-31T12:22:33;100016.97;;;24.83;32.71
6387;BME280;3226;42.162;24.756;2022-10-31T12:25:12;100016.28;;;25.02;33.37
6387;BME280;3226;42.162;24.756;2022-10-31T12:28:07;100011.66;;;25.16;33.19
6387;BME280;3226;42.162;24.756;2022-10-31T12:30:48;100007.47;;;25.33;32.37
6387;BME280;3226;42.162;24.756;2022-10-31T12:33:30;100009.72;;;25.30;33.32
6387;BME280;3226;42.162;24.756;2022-10-31T12:36:21;100016.19;;;24.76;34.17
6387;BME280;3226;42.162;24.756;2022-10-31T12:39:06;100009.41;;;25.19;32.86
6387;BME280;3226;42.162;24.756;2022-10-31T12:41:46;100011.19;;;25.32;32.82
6387;BME280;3226;42.162;24.756;2022-10-31T12:44:29;100005.47;;;25.54;32.94
6387;BME280;3226;42.162;24.756;2022-10-31T12:47:22;100011.50;;;25.43;32.43
6387;BME280;3226;42.162;24.756;2022-10-31T12:50:01;100001.47;;;25.63;32.38
6387;BME280;3226;42.162;24.756;2022-10-31T12:52:46;100007.13;;;25.80;32.27
6387;BME280;3226;42.162;24.756;2022-10-31T12:58:20;99999.84;;;25.62;32.58
6387;BME280;3226;42.162;24.756;2022-10-31T13:00:57;100005.38;;;25.35;32.33
6387;BME280;3226;42.162;24.756;2022-10-31T13:03:33;100006.34;;;25.48;32.84
6387;BME280;3226;42.162;24.756;2022-10-31T13:06:07;100005.31;;;25.42;33.03
6387;BME280;3226;42.162;24.756;2022-10-31T13:08:42;99999.75;;;25.44;32.84
6387;BME280;3226;42.162;24.756;2022-10-31T13:11:15;100000.94;;;25.54;32.46
6387;BME280;3226;42.162;24.756;2022-10-31T13:13:49;100000.88;;;25.61;32.97
6387;BME280;3226;42.162;24.756;2022-10-31T13:16:21;100015.44;;;25.72;32.41
6387;BME280;3226;42.162;24.756;2022-10-31T13:18:54;100010.09;;;25.72;33.21
6387;BME280;3226;42.162;24.756;2022-10-31T13:21:25;100008.41;;;25.52;33.21
6387;BME280;3226;42.162;24.756;2022-10-31T13:23:57;100008.06;;;25.35;32.69
6387;BME280;3226;42.162;24.756;2022-10-31T13:26:37;100002.44;;;25.05;32.45
6387;BME280;3226;42.162;24.756;2022-10-31T13:29:13;100004.75;;;25.01;32.32
6387;BME280;3226;42.162;24.756;2022-10-31T13:31:44;99978.28;;;25.18;31.98
6387;BME280;3226;42.162;24.756;2022-10-31T13:34:20;99998.97;;;24.97;31.96
6387;BME280;3226;42.162;24.756;2022-10-31T13:36:55;99996.16;;;24.86;32.11